Weather reports worldwide

Advertisment
Malaga,Cmt, Spain (8481): temperature & dewpoint: 05.12.2019 09:00:00 - 11.12.2019 09:00:00 (CET)Malaga,Cmt, Spain (8481): wind speed & gusts: 05.12.2019 09:00:00 - 11.12.2019 09:00:00 (CET)Malaga,Cmt, Spain (8481): wind direction: 05.12.2019 09:00:00 - 11.12.2019 09:00:00 (CET)Malaga,Cmt, Spain (8481): reduced air pressure: 05.12.2019 09:00:00 - 11.12.2019 09:00:00 (CET)Malaga,Cmt, Spain (8481): precipitation: 05.12.2019 09:00:00 - 11.12.2019 09:00:00 (CET)
Date & Time tt [°C] td [°C] ff [km/h] ff [kn] fx [km/h] fx [kn] dd ppp [hPa] rr [mm]
11.12.2019 09:00:00 - - - - - - - - -
11.12.2019 08:00:00 13,8 3,0 13 7 25 14 W 1024,7 0,0
11.12.2019 07:00:00 12,2 2,9 0 0 10 5 S 1024,7 -
11.12.2019 06:00:00 12,8 2,7 3 1 20 11 SW 1024,6 0,0
11.12.2019 05:00:00 13,5 1,7 10 6 29 16 W 1024,7 0,0
11.12.2019 04:00:00 15,1 1,9 23 12 34 18 WNW 1024,7 0,0
11.12.2019 03:00:00 13,7 1,3 6 3 17 9 N 1025,0 0,0
11.12.2019 02:00:00 14,7 2,3 11 6 22 12 WNW 1025,5 0,0
11.12.2019 01:00:00 13,9 2,5 8 4 15 8 WNW 1025,8 -
11.12.2019 00:00:00 14,5 3,0 6 4 14 8 WNW 1026,1 0,0
10.12.2019 23:00:00 14,3 3,9 7 4 16 9 NW 1026,0 0,0
10.12.2019 22:00:00 14,7 5,1 10 5 15 8 NW 1025,9 0,0
10.12.2019 21:00:00 13,9 9,2 5 3 10 5 NW 1026,3 0,0
10.12.2019 20:00:00 14,5 10,3 0 0 5 3 N 1026,2 0,0
10.12.2019 19:00:00 15,6 10,8 1 1 9 5 ESE 1025,7 -
10.12.2019 18:00:00 17,5 9,7 6 4 13 7 SE 1025,5 0,0
10.12.2019 17:00:00 18,4 8,1 7 4 15 8 E 1025,4 0,0
10.12.2019 16:00:00 19,9 9,2 9 5 14 8 SE 1025,2 0,0
10.12.2019 15:00:00 22,1 6,4 5 3 11 6 SW 1025,4 0,0
10.12.2019 14:00:00 - - - - - - - - -
10.12.2019 13:00:00 20,3 8,7 6 4 10 5 WSW 1028,0 -
10.12.2019 12:00:00 18,0 8,3 3 2 9 5 SW 1029,1 0,0
10.12.2019 11:00:00 15,9 8,1 6 3 10 5 SW 1028,9 0,0
10.12.2019 10:00:00 13,2 7,4 4 2 11 6 NW 1028,5 0,0
10.12.2019 09:00:00 11,2 7,3 6 3 12 7 NW 1028,5 0,0
10.12.2019 08:00:00 11,5 7,6 6 3 17 9 NW 1028,3 0,0
10.12.2019 07:00:00 11,9 8,0 9 5 15 8 NW 1028,0 -
10.12.2019 06:00:00 12,2 8,1 9 5 20 11 WNW 1028,0 0,0
10.12.2019 05:00:00 13,2 8,7 11 6 18 10 WNW 1028,2 0,0
10.12.2019 04:00:00 13,4 9,3 7 4 13 7 NW 1028,3 0,0
10.12.2019 03:00:00 13,7 9,2 5 3 14 7 NW 1028,5 0,0
10.12.2019 02:00:00 14,7 9,6 11 6 20 11 WNW 1028,5 0,0
10.12.2019 01:00:00 15,1 9,9 12 6 19 11 WNW 1028,8 -
10.12.2019 00:00:00 15,5 10,3 13 7 19 10 WNW 1028,5 0,0
09.12.2019 23:00:00 15,4 10,5 11 6 21 11 W 1028,7 0,0
09.12.2019 22:00:00 15,3 10,6 13 7 24 13 W 1028,6 0,0
09.12.2019 21:00:00 15,0 10,2 14 8 25 14 W 1028,5 0,0
09.12.2019 20:00:00 15,6 10,2 16 9 26 14 W 1028,2 0,0
09.12.2019 19:00:00 16,7 10,0 14 7 22 12 W 1027,8 -
09.12.2019 18:00:00 19,2 10,2 14 8 26 14 W 1027,0 0,0
09.12.2019 17:00:00 20,4 11,1 19 10 28 15 WSW 1026,7 0,0
09.12.2019 16:00:00 20,7 10,8 16 9 24 13 WSW 1026,6 0,0
09.12.2019 15:00:00 20,5 10,6 21 11 29 16 W 1027,0 0,0
09.12.2019 14:00:00 21,3 11,3 20 11 34 18 W 1027,4 0,0
09.12.2019 13:00:00 18,8 11,1 18 10 31 17 W 1028,7 -
09.12.2019 12:00:00 18,3 11,3 19 11 32 18 W 1029,2 0,0
09.12.2019 11:00:00 17,7 12,1 16 8 30 16 W 1029,2 0,0
09.12.2019 10:00:00 16,2 12,0 13 7 32 17 W 1029,1 0,0
09.12.2019 09:00:00 14,5 11,4 16 9 31 17 W 1028,5 0,0
09.12.2019 08:00:00 14,3 11,2 23 12 36 20 WNW 1028,0 0,0
09.12.2019 07:00:00 14,2 10,8 15 8 29 16 W 1027,8 -
09.12.2019 06:00:00 14,8 10,8 13 7 34 19 W 1027,4 0,0
09.12.2019 05:00:00 15,3 10,5 21 12 32 17 W 1027,2 0,0
09.12.2019 04:00:00 15,4 9,9 14 8 27 15 W 1027,4 0,0
09.12.2019 03:00:00 15,9 8,7 14 7 22 12 WNW 1027,5 0,0
09.12.2019 02:00:00 16,1 8,1 13 7 30 16 WNW 1027,9 0,0
09.12.2019 01:00:00 16,5 7,7 13 7 29 16 NW 1027,5 -
09.12.2019 00:00:00 16,4 7,6 7 4 23 12 WNW 1027,4 0,0
08.12.2019 23:00:00 16,6 7,8 13 7 23 13 W 1027,0 0,0
08.12.2019 22:00:00 16,7 7,6 9 5 20 11 WNW 1027,2 0,0
08.12.2019 21:00:00 17,0 7,1 11 6 23 12 W 1027,0 0,0
08.12.2019 20:00:00 18,0 6,2 8 4 22 12 W 1026,9 0,0
08.12.2019 19:00:00 18,7 6,2 12 6 24 13 WNW 1025,8 -
08.12.2019 18:00:00 19,9 5,9 13 7 26 14 WNW 1025,2 0,0
08.12.2019 17:00:00 21,0 6,8 11 6 25 14 WNW 1024,9 0,0
08.12.2019 16:00:00 21,6 5,5 14 8 24 13 WNW 1024,6 0,0
08.12.2019 15:00:00 21,6 6,7 12 6 27 15 WNW 1024,9 0,0
08.12.2019 14:00:00 21,2 9,2 14 8 27 15 W 1025,6 0,0
08.12.2019 13:00:00 20,2 10,0 12 7 20 11 W 1026,7 -
08.12.2019 12:00:00 16,9 8,5 10 5 16 9 W 1027,9 0,0
08.12.2019 11:00:00 15,5 9,6 7 4 15 8 WSW 1027,9 0,0
08.12.2019 10:00:00 12,6 8,7 5 3 12 6 W 1027,7 0,0
08.12.2019 09:00:00 10,2 8,0 7 4 15 8 WNW 1027,6 0,0
08.12.2019 08:00:00 10,2 8,3 9 5 15 8 W 1027,3 0,0
08.12.2019 07:00:00 10,8 9,4 8 4 14 8 NW 1026,7 -
08.12.2019 06:00:00 10,0 8,7 5 3 11 6 W 1026,8 0,0
08.12.2019 05:00:00 10,8 9,6 6 3 10 6 NW 1026,8 0,0
08.12.2019 04:00:00 11,0 9,8 3 2 10 5 NW 1027,2 0,0
08.12.2019 03:00:00 10,9 9,7 6 3 12 6 NW 1027,3 0,0
08.12.2019 02:00:00 11,5 10,3 9 5 16 9 WNW 1027,3 0,0
08.12.2019 01:00:00 11,4 10,2 0 0 5 3 NNW 1027,5 -
08.12.2019 00:00:00 11,9 10,5 1 0 5 3 W 1027,4 0,0
07.12.2019 23:00:00 13,0 11,2 2 1 6 3 WNW 1027,2 0,0
07.12.2019 22:00:00 13,8 11,9 5 3 8 4 ENE 1026,6 0,0
07.12.2019 21:00:00 14,4 12,4 4 2 11 6 ENE 1026,1 0,0
07.12.2019 20:00:00 15,0 12,6 7 4 14 7 E 1025,5 0,0
07.12.2019 19:00:00 15,6 11,6 7 4 17 9 E 1024,9 -
07.12.2019 18:00:00 16,5 9,7 10 6 19 10 ESE 1024,3 0,0
07.12.2019 17:00:00 18,5 9,6 13 7 21 12 SSE 1023,3 0,0
07.12.2019 16:00:00 20,1 11,6 11 6 22 12 SSE 1022,9 0,0
07.12.2019 15:00:00 20,6 10,6 15 8 21 11 S 1023,1 0,0
07.12.2019 14:00:00 21,1 9,0 13 7 20 11 S 1023,5 0,0
07.12.2019 13:00:00 21,2 9,4 7 4 11 6 SSW 1024,3 -
07.12.2019 12:00:00 18,7 10,5 6 3 13 7 W 1024,6 0,0
07.12.2019 11:00:00 15,6 11,0 9 5 15 8 WNW 1024,6 0,0
07.12.2019 10:00:00 13,8 11,3 9 5 14 7 W 1024,2 0,0
07.12.2019 09:00:00 13,6 11,1 8 5 13 7 WNW 1023,8 0,0
07.12.2019 08:00:00 13,7 11,2 10 5 17 9 WNW 1023,1 0,0
07.12.2019 07:00:00 14,0 11,6 10 5 16 9 W 1022,7 -
07.12.2019 06:00:00 13,9 11,6 10 5 15 8 W 1022,6 0,0
07.12.2019 05:00:00 13,3 11,0 9 5 15 8 W 1022,8 0,0
07.12.2019 04:00:00 13,9 11,1 9 5 13 7 W 1022,8 0,0
07.12.2019 03:00:00 14,4 11,9 4 2 9 5 NNW 1022,7 0,0
07.12.2019 02:00:00 14,3 12,0 4 2 8 4 NNW 1023,0 0,0
07.12.2019 01:00:00 14,2 11,9 4 2 9 5 WNW 1023,1 -
07.12.2019 00:00:00 14,3 12,0 3 2 9 5 NNW 1022,9 0,0
06.12.2019 23:00:00 14,1 11,8 3 2 8 4 NW 1022,6 0,0
06.12.2019 22:00:00 14,3 12,0 3 2 8 5 NNW 1022,4 0,0
06.12.2019 21:00:00 14,6 12,3 3 2 6 3 NW 1022,3 0,0
06.12.2019 20:00:00 15,2 12,3 0 0 3 2 N 1021,6 0,0
06.12.2019 19:00:00 15,9 12,2 3 2 9 5 S 1020,9 -
06.12.2019 18:00:00 17,3 11,8 5 3 19 10 SSE 1020,2 0,0
06.12.2019 17:00:00 18,1 9,7 8 4 16 9 ESE 1019,7 0,0
06.12.2019 16:00:00 19,1 7,1 9 5 16 8 SSE 1019,2 0,0
06.12.2019 15:00:00 21,3 8,9 6 3 12 7 SSW 1018,8 0,0
06.12.2019 14:00:00 21,0 9,3 6 3 12 7 WSW 1019,6 0,0
06.12.2019 13:00:00 19,9 9,8 8 5 12 7 W 1020,6 -
06.12.2019 12:00:00 18,0 10,4 8 4 12 7 W 1021,4 0,0
06.12.2019 11:00:00 14,2 10,0 9 5 19 10 W 1021,6 0,0
06.12.2019 10:00:00 11,1 9,2 12 7 18 10 W 1021,1 0,0
06.12.2019 09:00:00 10,4 6,8 11 6 15 8 W 1020,4 0,0
06.12.2019 08:00:00 10,7 8,4 6 3 11 6 NNW 1019,6 0,0
06.12.2019 07:00:00 10,2 8,8 6 3 12 7 W 1019,2 -
06.12.2019 06:00:00 11,2 9,4 7 4 15 8 W 1018,8 0,0
06.12.2019 05:00:00 11,2 9,4 6 4 11 6 W 1018,5 0,0
06.12.2019 04:00:00 11,5 9,6 6 3 11 6 W 1018,5 0,0
06.12.2019 03:00:00 12,4 10,2 9 5 14 8 W 1017,9 0,0
06.12.2019 02:00:00 12,6 10,3 7 4 13 7 NW 1017,7 0,0
06.12.2019 01:00:00 13,3 11,0 5 3 14 7 NW 1018,1 -
06.12.2019 00:00:00 13,7 11,4 6 3 11 6 NW 1018,3 0,0
05.12.2019 23:00:00 14,1 11,6 4 2 9 5 NNW 1018,2 0,0
05.12.2019 22:00:00 15,1 12,2 0 0 8 4 W 1018,1 0,0
05.12.2019 21:00:00 15,3 12,4 3 2 11 6 ESE 1017,8 0,0
05.12.2019 20:00:00 15,2 12,7 6 3 17 9 ESE 1017,4 0,0
05.12.2019 19:00:00 15,3 12,7 11 6 21 11 SE 1016,6 -
05.12.2019 18:00:00 15,4 12,3 11 6 18 10 ESE 1016,2 0,0
05.12.2019 17:00:00 15,7 12,2 10 5 19 10 SE 1015,7 0,0
05.12.2019 16:00:00 15,7 11,7 12 6 19 11 SE 1015,3 0,0
05.12.2019 15:00:00 15,5 11,4 12 6 28 15 ESE 1015,4 0,0
05.12.2019 14:00:00 15,7 10,3 19 10 30 16 E 1015,6 0,0
05.12.2019 13:00:00 17,0 8,1 16 8 24 13 SE 1015,8 -
05.12.2019 12:00:00 17,2 8,4 1 1 9 5 SW 1016,2 0,0
05.12.2019 11:00:00 13,6 7,1 4 2 14 8 W 1016,0 0,0
05.12.2019 10:00:00 13,1 7,6 6 3 13 7 WSW 1015,0 0,0
05.12.2019 09:00:00 11,2 6,7 5 3 16 8 NW 1014,5 0,0

tt = temperature
td = dewpoint
ff = wind speed
fx = gusts
dd = wind direction
ppp = reduced air pressure
rr = precipitation

Next stations